sensor_id;sensor_type;location;lat;lon;timestamp;P1;durP1;ratioP1;P2;durP2;ratioP2
70967;SDS011;58629;48.808;8.820;2022-07-10T00:02:10;4.70;;;4.00;;
70967;SDS011;58629;48.808;8.820;2022-07-10T00:04:36;5.13;;;4.63;;
70967;SDS011;58629;48.808;8.820;2022-07-10T00:07:04;5.33;;;4.83;;
70967;SDS011;58629;48.808;8.820;2022-07-10T00:09:31;5.30;;;4.45;;
70967;SDS011;58629;48.808;8.820;2022-07-10T00:11:56;5.47;;;4.80;;
70967;SDS011;58629;48.808;8.820;2022-07-10T00:14:22;5.45;;;4.43;;
70967;SDS011;58629;48.808;8.820;2022-07-10T00:16:47;6.17;;;4.90;;
70967;SDS011;58629;48.808;8.820;2022-07-10T00:19:13;5.60;;;4.70;;
70967;SDS011;58629;48.808;8.820;2022-07-10T00:21:38;5.63;;;4.60;;
70967;SDS011;58629;48.808;8.820;2022-07-10T00:24:04;6.07;;;5.00;;
70967;SDS011;58629;48.808;8.820;2022-07-10T00:26:29;6.60;;;4.80;;
70967;SDS011;58629;48.808;8.820;2022-07-10T00:28:55;5.60;;;4.70;;
70967;SDS011;58629;48.808;8.820;2022-07-10T00:31:20;5.25;;;4.10;;
70967;SDS011;58629;48.808;8.820;2022-07-10T00:33:46;3.60;;;3.30;;
70967;SDS011;58629;48.808;8.820;2022-07-10T00:36:12;3.05;;;2.75;;
70967;SDS011;58629;48.808;8.820;2022-07-10T00:38:38;2.43;;;2.23;;
70967;SDS011;58629;48.808;8.820;2022-07-10T00:41:03;2.20;;;2.00;;
70967;SDS011;58629;48.808;8.820;2022-07-10T00:43:28;2.10;;;1.90;;
70967;SDS011;58629;48.808;8.820;2022-07-10T00:45:54;2.40;;;2.00;;
70967;SDS011;58629;48.808;8.820;2022-07-10T00:48:19;2.03;;;1.80;;
70967;SDS011;58629;48.808;8.820;2022-07-10T00:50:45;1.50;;;1.30;;
70967;SDS011;58629;48.808;8.820;2022-07-10T00:53:11;1.23;;;1.13;;
70967;SDS011;58629;48.808;8.820;2022-07-10T00:55:38;1.45;;;1.35;;
70967;SDS011;58629;48.808;8.820;2022-07-10T00:58:05;1.50;;;1.40;;
70967;SDS011;58629;48.808;8.820;2022-07-10T01:00:33;1.20;;;1.10;;
70967;SDS011;58629;48.808;8.820;2022-07-10T01:02:59;2.13;;;1.90;;
70967;SDS011;58629;48.808;8.820;2022-07-10T01:05:24;1.50;;;1.40;;
70967;SDS011;58629;48.808;8.820;2022-07-10T01:07:50;1.40;;;1.30;;
70967;SDS011;58629;48.808;8.820;2022-07-10T01:10:15;1.50;;;1.40;;
70967;SDS011;58629;48.808;8.820;2022-07-10T01:12:40;2.17;;;1.60;;
70967;SDS011;58629;48.808;8.820;2022-07-10T01:15:07;1.20;;;1.10;;
70967;SDS011;58629;48.808;8.820;2022-07-10T01:17:32;1.50;;;1.40;;
70967;SDS011;58629;48.808;8.820;2022-07-10T01:20:03;1.70;;;1.60;;
70967;SDS011;58629;48.808;8.820;2022-07-10T01:22:30;1.65;;;1.55;;
70967;SDS011;58629;48.808;8.820;2022-07-10T01:24:56;1.77;;;1.63;;
70967;SDS011;58629;48.808;8.820;2022-07-10T01:27:21;1.73;;;1.63;;
70967;SDS011;58629;48.808;8.820;2022-07-10T01:29:46;1.30;;;1.20;;
70967;SDS011;58629;48.808;8.820;2022-07-10T01:32:12;1.35;;;1.23;;
70967;SDS011;58629;48.808;8.820;2022-07-10T01:34:37;1.40;;;1.30;;
70967;SDS011;58629;48.808;8.820;2022-07-10T01:37:03;1.87;;;1.67;;
70967;SDS011;58629;48.808;8.820;2022-07-10T01:39:28;2.40;;;2.20;;
70967;SDS011;58629;48.808;8.820;2022-07-10T01:41:54;1.98;;;1.80;;
70967;SDS011;58629;48.808;8.820;2022-07-10T01:44:19;1.77;;;1.67;;
70967;SDS011;58629;48.808;8.820;2022-07-10T01:46:47;1.90;;;1.70;;
70967;SDS011;58629;48.808;8.820;2022-07-10T01:49:14;1.40;;;1.30;;
70967;SDS011;58629;48.808;8.820;2022-07-10T01:51:42;2.00;;;1.80;;
70967;SDS011;58629;48.808;8.820;2022-07-10T01:54:08;1.65;;;1.55;;
70967;SDS011;58629;48.808;8.820;2022-07-10T01:56:33;2.93;;;2.63;;
70967;SDS011;58629;48.808;8.820;2022-07-10T01:58:59;2.00;;;1.83;;
70967;SDS011;58629;48.808;8.820;2022-07-10T02:01:26;7.50;;;5.78;;
70967;SDS011;58629;48.808;8.820;2022-07-10T02:03:52;7.25;;;5.80;;
70967;SDS011;58629;48.808;8.820;2022-07-10T02:06:38;6.75;;;5.70;;
70967;SDS011;58629;48.808;8.820;2022-07-10T02:09:03;6.97;;;5.67;;
70967;SDS011;58629;48.808;8.820;2022-07-10T02:11:28;5.80;;;5.20;;
70967;SDS011;58629;48.808;8.820;2022-07-10T02:13:54;9.07;;;7.35;;
70967;SDS011;58629;48.808;8.820;2022-07-10T02:16:19;12.70;;;9.80;;
70967;SDS011;58629;48.808;8.820;2022-07-10T02:18:44;11.50;;;9.10;;
70967;SDS011;58629;48.808;8.820;2022-07-10T02:21:09;10.83;;;8.80;;
70967;SDS011;58629;48.808;8.820;2022-07-10T02:23:35;11.70;;;8.70;;
70967;SDS011;58629;48.808;8.820;2022-07-10T02:26:00;12.07;;;9.30;;
70967;SDS011;58629;48.808;8.820;2022-07-10T02:28:26;12.10;;;9.30;;
70967;SDS011;58629;48.808;8.820;2022-07-10T02:30:52;11.57;;;9.23;;
70967;SDS011;58629;48.808;8.820;2022-07-10T02:33:18;14.48;;;10.77;;
70967;SDS011;58629;48.808;8.820;2022-07-10T02:35:43;13.17;;;9.77;;
70967;SDS011;58629;48.808;8.820;2022-07-10T02:38:09;10.80;;;8.90;;
70967;SDS011;58629;48.808;8.820;2022-07-10T02:40:34;11.35;;;9.30;;
70967;SDS011;58629;48.808;8.820;2022-07-10T02:42:59;13.17;;;9.63;;
70967;SDS011;58629;48.808;8.820;2022-07-10T02:45:24;11.90;;;8.70;;
70967;SDS011;58629;48.808;8.820;2022-07-10T02:47:50;11.77;;;9.43;;
70967;SDS011;58629;48.808;8.820;2022-07-10T02:50:15;11.00;;;8.90;;
70967;SDS011;58629;48.808;8.820;2022-07-10T02:52:40;11.00;;;9.20;;
70967;SDS011;58629;48.808;8.820;2022-07-10T02:55:06;10.47;;;8.00;;
70967;SDS011;58629;48.808;8.820;2022-07-10T02:57:31;10.70;;;8.80;;
70967;SDS011;58629;48.808;8.820;2022-07-10T02:59:57;10.03;;;8.50;;
70967;SDS011;58629;48.808;8.820;2022-07-10T03:02:22;11.90;;;9.10;;
70967;SDS011;58629;48.808;8.820;2022-07-10T03:04:47;11.33;;;8.80;;
70967;SDS011;58629;48.808;8.820;2022-07-10T03:07:12;12.30;;;10.07;;
70967;SDS011;58629;48.808;8.820;2022-07-10T03:09:38;12.00;;;9.57;;
70967;SDS011;58629;48.808;8.820;2022-07-10T03:12:03;14.63;;;10.80;;
70967;SDS011;58629;48.808;8.820;2022-07-10T03:14:29;17.93;;;10.87;;
70967;SDS011;58629;48.808;8.820;2022-07-10T03:16:54;13.87;;;10.63;;
70967;SDS011;58629;48.808;8.820;2022-07-10T03:19:19;15.53;;;12.27;;
70967;SDS011;58629;48.808;8.820;2022-07-10T03:21:44;15.30;;;11.60;;
70967;SDS011;58629;48.808;8.820;2022-07-10T03:27:32;14.82;;;10.55;;
70967;SDS011;58629;48.808;8.820;2022-07-10T03:29:57;13.40;;;10.37;;
70967;SDS011;58629;48.808;8.820;2022-07-10T03:32:22;13.40;;;10.57;;
70967;SDS011;58629;48.808;8.820;2022-07-10T03:34:48;14.73;;;10.83;;
70967;SDS011;58629;48.808;8.820;2022-07-10T03:37:13;15.07;;;10.63;;
70967;SDS011;58629;48.808;8.820;2022-07-10T03:39:38;14.73;;;10.40;;
70967;SDS011;58629;48.808;8.820;2022-07-10T03:42:04;13.27;;;10.33;;
70967;SDS011;58629;48.808;8.820;2022-07-10T03:44:29;15.23;;;10.63;;
70967;SDS011;58629;48.808;8.820;2022-07-10T03:46:54;11.87;;;9.13;;
70967;SDS011;58629;48.808;8.820;2022-07-10T03:49:20;13.57;;;9.53;;
70967;SDS011;58629;48.808;8.820;2022-07-10T03:51:45;13.73;;;9.57;;
70967;SDS011;58629;48.808;8.820;2022-07-10T03:54:11;11.50;;;8.47;;
70967;SDS011;58629;48.808;8.820;2022-07-10T03:56:36;11.43;;;8.17;;
70967;SDS011;58629;48.808;8.820;2022-07-10T03:59:19;12.27;;;7.90;;
70967;SDS011;58629;48.808;8.820;2022-07-10T04:01:45;11.23;;;8.10;;
70967;SDS011;58629;48.808;8.820;2022-07-10T04:04:10;11.30;;;8.07;;
70967;SDS011;58629;48.808;8.820;2022-07-10T04:06:35;9.83;;;8.33;;
70967;SDS011;58629;48.808;8.820;2022-07-10T04:09:03;10.60;;;7.38;;
70967;SDS011;58629;48.808;8.820;2022-07-10T04:11:29;8.70;;;7.15;;
70967;SDS011;58629;48.808;8.820;2022-07-10T04:13:54;9.83;;;7.10;;
70967;SDS011;58629;48.808;8.820;2022-07-10T04:16:19;10.17;;;6.97;;
70967;SDS011;58629;48.808;8.820;2022-07-10T04:18:45;10.03;;;6.60;;
70967;SDS011;58629;48.808;8.820;2022-07-10T04:21:10;9.20;;;6.50;;
70967;SDS011;58629;48.808;8.820;2022-07-10T04:23:35;9.40;;;5.90;;
70967;SDS011;58629;48.808;8.820;2022-07-10T04:26:01;9.33;;;6.10;;
70967;SDS011;58629;48.808;8.820;2022-07-10T04:35:09;7.13;;;5.40;;
70967;SDS011;58629;48.808;8.820;2022-07-10T04:37:35;7.97;;;5.20;;
70967;SDS011;58629;48.808;8.820;2022-07-10T04:40:00;8.83;;;5.07;;
70967;SDS011;58629;48.808;8.820;2022-07-10T04:42:26;7.15;;;4.88;;
70967;SDS011;58629;48.808;8.820;2022-07-10T04:44:51;6.17;;;4.27;;
70967;SDS011;58629;48.808;8.820;2022-07-10T04:47:16;5.13;;;4.20;;
70967;SDS011;58629;48.808;8.820;2022-07-10T04:49:42;5.73;;;3.90;;
70967;SDS011;58629;48.808;8.820;2022-07-10T04:52:07;4.93;;;4.00;;
70967;SDS011;58629;48.808;8.820;2022-07-10T04:54:32;7.03;;;4.60;;
70967;SDS011;58629;48.808;8.820;2022-07-10T04:56:58;10.87;;;4.07;;
70967;SDS011;58629;48.808;8.820;2022-07-10T04:59:23;6.97;;;4.10;;
70967;SDS011;58629;48.808;8.820;2022-07-10T05:01:48;5.43;;;4.10;;
70967;SDS011;58629;48.808;8.820;2022-07-10T05:04:13;5.15;;;4.00;;
70967;SDS011;58629;48.808;8.820;2022-07-10T05:06:39;5.20;;;3.57;;
70967;SDS011;58629;48.808;8.820;2022-07-10T05:09:04;4.50;;;3.70;;
70967;SDS011;58629;48.808;8.820;2022-07-10T05:11:29;5.50;;;3.70;;
70967;SDS011;58629;48.808;8.820;2022-07-10T05:13:56;4.80;;;3.88;;
70967;SDS011;58629;48.808;8.820;2022-07-10T05:16:21;7.27;;;4.37;;
70967;SDS011;58629;48.808;8.820;2022-07-10T05:18:47;6.93;;;4.30;;
70967;SDS011;58629;48.808;8.820;2022-07-10T05:24:34;6.60;;;4.30;;
70967;SDS011;58629;48.808;8.820;2022-07-10T05:26:59;6.40;;;4.00;;
70967;SDS011;58629;48.808;8.820;2022-07-10T05:29:24;6.37;;;3.53;;
70967;SDS011;58629;48.808;8.820;2022-07-10T05:31:50;7.30;;;3.60;;
70967;SDS011;58629;48.808;8.820;2022-07-10T05:34:16;7.13;;;3.60;;
70967;SDS011;58629;48.808;8.820;2022-07-10T05:36:41;6.50;;;3.50;;
70967;SDS011;58629;48.808;8.820;2022-07-10T05:39:06;4.90;;;3.57;;
70967;SDS011;58629;48.808;8.820;2022-07-10T05:41:31;6.93;;;3.20;;
70967;SDS011;58629;48.808;8.820;2022-07-10T05:43:58;5.53;;;3.17;;
70967;SDS011;58629;48.808;8.820;2022-07-10T05:46:23;5.50;;;3.20;;
70967;SDS011;58629;48.808;8.820;2022-07-10T05:48:49;5.60;;;3.13;;
70967;SDS011;58629;48.808;8.820;2022-07-10T05:51:14;5.07;;;3.00;;
70967;SDS011;58629;48.808;8.820;2022-07-10T05:53:39;5.57;;;2.80;;
70967;SDS011;58629;48.808;8.820;2022-07-10T05:56:05;5.63;;;2.90;;
70967;SDS011;58629;48.808;8.820;2022-07-10T05:58:30;6.38;;;2.92;;
70967;SDS011;58629;48.808;8.820;2022-07-10T06:00:55;3.90;;;2.57;;
70967;SDS011;58629;48.808;8.820;2022-07-10T06:03:21;4.67;;;2.97;;
70967;SDS011;58629;48.808;8.820;2022-07-10T06:05:46;3.33;;;2.37;;
70967;SDS011;58629;48.808;8.820;2022-07-10T06:08:12;4.85;;;2.50;;
70967;SDS011;58629;48.808;8.820;2022-07-10T06:10:37;4.93;;;2.47;;
70967;SDS011;58629;48.808;8.820;2022-07-10T06:13:05;2.95;;;2.30;;
70967;SDS011;58629;48.808;8.820;2022-07-10T06:15:30;3.15;;;2.50;;
70967;SDS011;58629;48.808;8.820;2022-07-10T06:17:58;2.93;;;2.20;;
70967;SDS011;58629;48.808;8.820;2022-07-10T06:20:24;3.73;;;2.30;;
70967;SDS011;58629;48.808;8.820;2022-07-10T06:22:50;5.65;;;2.25;;
70967;SDS011;58629;48.808;8.820;2022-07-10T06:25:15;7.57;;;2.50;;
70967;SDS011;58629;48.808;8.820;2022-07-10T06:27:40;3.83;;;2.03;;
70967;SDS011;58629;48.808;8.820;2022-07-10T06:30:06;3.93;;;2.10;;
70967;SDS011;58629;48.808;8.820;2022-07-10T06:32:31;3.15;;;1.90;;
70967;SDS011;58629;48.808;8.820;2022-07-10T06:34:57;3.17;;;1.90;;
70967;SDS011;58629;48.808;8.820;2022-07-10T06:37:22;4.43;;;1.70;;
70967;SDS011;58629;48.808;8.820;2022-07-10T06:39:47;4.80;;;1.90;;
70967;SDS011;58629;48.808;8.820;2022-07-10T06:42:13;5.82;;;2.10;;
70967;SDS011;58629;48.808;8.820;2022-07-10T06:44:38;6.40;;;1.98;;
70967;SDS011;58629;48.808;8.820;2022-07-10T06:47:04;3.00;;;2.00;;
70967;SDS011;58629;48.808;8.820;2022-07-10T06:49:50;2.75;;;2.00;;
70967;SDS011;58629;48.808;8.820;2022-07-10T06:52:15;4.30;;;1.50;;
70967;SDS011;58629;48.808;8.820;2022-07-10T06:54:41;3.73;;;1.90;;
70967;SDS011;58629;48.808;8.820;2022-07-10T06:57:07;8.23;;;2.55;;
70967;SDS011;58629;48.808;8.820;2022-07-10T06:59:33;4.25;;;1.73;;
70967;SDS011;58629;48.808;8.820;2022-07-10T07:01:58;2.87;;;1.50;;
70967;SDS011;58629;48.808;8.820;2022-07-10T07:04:24;3.60;;;1.60;;
70967;SDS011;58629;48.808;8.820;2022-07-10T07:06:49;3.10;;;1.53;;
70967;SDS011;58629;48.808;8.820;2022-07-10T07:09:15;5.03;;;1.70;;
70967;SDS011;58629;48.808;8.820;2022-07-10T07:11:40;2.13;;;1.40;;
70967;SDS011;58629;48.808;8.820;2022-07-10T07:14:05;3.13;;;1.40;;
70967;SDS011;58629;48.808;8.820;2022-07-10T07:16:30;4.03;;;1.70;;
70967;SDS011;58629;48.808;8.820;2022-07-10T07:19:10;2.38;;;1.52;;
70967;SDS011;58629;48.808;8.820;2022-07-10T07:21:37;2.30;;;1.60;;
70967;SDS011;58629;48.808;8.820;2022-07-10T07:24:20;2.75;;;1.60;;
70967;SDS011;58629;48.808;8.820;2022-07-10T07:26:46;2.70;;;1.60;;
70967;SDS011;58629;48.808;8.820;2022-07-10T07:29:13;3.28;;;1.58;;
70967;SDS011;58629;48.808;8.820;2022-07-10T07:31:39;5.75;;;1.70;;
70967;SDS011;58629;48.808;8.820;2022-07-10T07:34:04;6.50;;;2.00;;
70967;SDS011;58629;48.808;8.820;2022-07-10T07:36:30;3.17;;;1.63;;
70967;SDS011;58629;48.808;8.820;2022-07-10T07:38:55;3.17;;;1.73;;
70967;SDS011;58629;48.808;8.820;2022-07-10T07:41:21;6.67;;;1.90;;
70967;SDS011;58629;48.808;8.820;2022-07-10T07:43:47;4.05;;;1.80;;
70967;SDS011;58629;48.808;8.820;2022-07-10T07:46:13;5.40;;;2.23;;
70967;SDS011;58629;48.808;8.820;2022-07-10T07:48:38;4.37;;;1.70;;
70967;SDS011;58629;48.808;8.820;2022-07-10T07:51:03;2.37;;;1.60;;
70967;SDS011;58629;48.808;8.820;2022-07-10T07:53:29;3.63;;;1.60;;
70967;SDS011;58629;48.808;8.820;2022-07-10T07:55:54;2.17;;;1.57;;
70967;SDS011;58629;48.808;8.820;2022-07-10T07:58:20;1.95;;;1.38;;
70967;SDS011;58629;48.808;8.820;2022-07-10T08:00:45;2.70;;;1.50;;
70967;SDS011;58629;48.808;8.820;2022-07-10T08:03:10;4.47;;;1.70;;
70967;SDS011;58629;48.808;8.820;2022-07-10T08:08:57;3.97;;;1.58;;
70967;SDS011;58629;48.808;8.820;2022-07-10T08:14:44;2.50;;;1.30;;
70967;SDS011;58629;48.808;8.820;2022-07-10T08:17:09;4.70;;;1.52;;
70967;SDS011;58629;48.808;8.820;2022-07-10T08:19:35;4.28;;;1.70;;
70967;SDS011;58629;48.808;8.820;2022-07-10T08:22:00;6.30;;;1.77;;
70967;SDS011;58629;48.808;8.820;2022-07-10T08:24:25;2.87;;;1.33;;
70967;SDS011;58629;48.808;8.820;2022-07-10T08:26:51;1.93;;;1.50;;
70967;SDS011;58629;48.808;8.820;2022-07-10T08:29:16;3.13;;;1.90;;
70967;SDS011;58629;48.808;8.820;2022-07-10T08:31:41;3.33;;;1.70;;
70967;SDS011;58629;48.808;8.820;2022-07-10T08:34:06;5.77;;;2.13;;
70967;SDS011;58629;48.808;8.820;2022-07-10T08:36:32;5.53;;;2.57;;
70967;SDS011;58629;48.808;8.820;2022-07-10T08:38:57;5.03;;;2.17;;
70967;SDS011;58629;48.808;8.820;2022-07-10T08:41:27;5.35;;;2.40;;
70967;SDS011;58629;48.808;8.820;2022-07-10T08:43:53;4.05;;;2.40;;
70967;SDS011;58629;48.808;8.820;2022-07-10T08:46:18;6.15;;;2.38;;
70967;SDS011;58629;48.808;8.820;2022-07-10T08:48:47;4.20;;;2.00;;
70967;SDS011;58629;48.808;8.820;2022-07-10T08:51:19;2.90;;;2.28;;
70967;SDS011;58629;48.808;8.820;2022-07-10T08:53:50;6.05;;;2.80;;
70967;SDS011;58629;48.808;8.820;2022-07-10T08:56:16;3.88;;;2.80;;
70967;SDS011;58629;48.808;8.820;2022-07-10T08:58:42;4.55;;;3.03;;
70967;SDS011;58629;48.808;8.820;2022-07-10T09:01:07;5.37;;;2.83;;
70967;SDS011;58629;48.808;8.820;2022-07-10T09:03:33;4.40;;;2.50;;
70967;SDS011;58629;48.808;8.820;2022-07-10T09:05:58;3.72;;;2.63;;
70967;SDS011;58629;48.808;8.820;2022-07-10T09:08:25;4.43;;;2.30;;
70967;SDS011;58629;48.808;8.820;2022-07-10T09:11:17;5.70;;;2.92;;
70967;SDS011;58629;48.808;8.820;2022-07-10T09:16:26;3.53;;;2.30;;
70967;SDS011;58629;48.808;8.820;2022-07-10T09:18:53;5.23;;;2.20;;
70967;SDS011;58629;48.808;8.820;2022-07-10T09:21:18;4.50;;;2.30;;
70967;SDS011;58629;48.808;8.820;2022-07-10T09:23:44;4.60;;;2.63;;
70967;SDS011;58629;48.808;8.820;2022-07-10T09:26:10;5.73;;;2.70;;
70967;SDS011;58629;48.808;8.820;2022-07-10T09:28:35;4.30;;;2.40;;
70967;SDS011;58629;48.808;8.820;2022-07-10T09:31:01;3.60;;;1.97;;
70967;SDS011;58629;48.808;8.820;2022-07-10T09:33:27;5.00;;;2.30;;
70967;SDS011;58629;48.808;8.820;2022-07-10T09:41:14;3.42;;;2.40;;
70967;SDS011;58629;48.808;8.820;2022-07-10T09:43:44;3.85;;;2.30;;
70967;SDS011;58629;48.808;8.820;2022-07-10T09:46:12;3.47;;;2.30;;
70967;SDS011;58629;48.808;8.820;2022-07-10T09:48:38;3.60;;;2.20;;
70967;SDS011;58629;48.808;8.820;2022-07-10T09:51:07;3.73;;;2.30;;
70967;SDS011;58629;48.808;8.820;2022-07-10T09:53:36;6.63;;;2.60;;
70967;SDS011;58629;48.808;8.820;2022-07-10T09:56:04;3.05;;;2.33;;
70967;SDS011;58629;48.808;8.820;2022-07-10T09:58:32;3.67;;;2.20;;
70967;SDS011;58629;48.808;8.820;2022-07-10T10:01:00;4.63;;;2.17;;
70967;SDS011;58629;48.808;8.820;2022-07-10T10:03:27;3.72;;;2.67;;
70967;SDS011;58629;48.808;8.820;2022-07-10T10:06:16;3.92;;;2.63;;
70967;SDS011;58629;48.808;8.820;2022-07-10T10:11:17;3.10;;;2.08;;
70967;SDS011;58629;48.808;8.820;2022-07-10T10:13:45;2.97;;;2.55;;
70967;SDS011;58629;48.808;8.820;2022-07-10T10:16:11;4.45;;;2.60;;
70967;SDS011;58629;48.808;8.820;2022-07-10T10:18:37;3.20;;;2.33;;
70967;SDS011;58629;48.808;8.820;2022-07-10T10:24:16;4.35;;;2.45;;
70967;SDS011;58629;48.808;8.820;2022-07-10T10:26:42;3.50;;;2.30;;
70967;SDS011;58629;48.808;8.820;2022-07-10T10:29:09;3.10;;;2.33;;
70967;SDS011;58629;48.808;8.820;2022-07-10T10:31:35;3.83;;;2.60;;
70967;SDS011;58629;48.808;8.820;2022-07-10T10:34:01;3.53;;;2.20;;
70967;SDS011;58629;48.808;8.820;2022-07-10T10:39:09;3.95;;;2.00;;
70967;SDS011;58629;48.808;8.820;2022-07-10T10:46:33;2.30;;;1.77;;
70967;SDS011;58629;48.808;8.820;2022-07-10T10:49:06;3.17;;;1.85;;
70967;SDS011;58629;48.808;8.820;2022-07-10T10:54:23;5.73;;;1.67;;
70967;SDS011;58629;48.808;8.820;2022-07-10T11:02:28;4.18;;;1.83;;
70967;SDS011;58629;48.808;8.820;2022-07-10T11:10:35;3.20;;;1.58;;
70967;SDS011;58629;48.808;8.820;2022-07-10T11:13:11;2.40;;;1.30;;
70967;SDS011;58629;48.808;8.820;2022-07-10T11:15:41;3.58;;;1.70;;
70967;SDS011;58629;48.808;8.820;2022-07-10T11:18:12;2.25;;;1.30;;
70967;SDS011;58629;48.808;8.820;2022-07-10T11:20:42;4.55;;;1.30;;
70967;SDS011;58629;48.808;8.820;2022-07-10T11:25:52;2.47;;;1.10;;
70967;SDS011;58629;48.808;8.820;2022-07-10T11:34:34;2.10;;;1.10;;
70967;SDS011;58629;48.808;8.820;2022-07-10T11:42:57;2.08;;;1.10;;
70967;SDS011;58629;48.808;8.820;2022-07-10T11:45:28;1.73;;;1.05;;
70967;SDS011;58629;48.808;8.820;2022-07-10T11:47:55;2.92;;;1.08;;
70967;SDS011;58629;48.808;8.820;2022-07-10T11:50:21;3.13;;;0.87;;
70967;SDS011;58629;48.808;8.820;2022-07-10T11:52:47;2.35;;;0.90;;
70967;SDS011;58629;48.808;8.820;2022-07-10T11:55:19;1.93;;;1.00;;
70967;SDS011;58629;48.808;8.820;2022-07-10T11:57:46;2.53;;;0.95;;
70967;SDS011;58629;48.808;8.820;2022-07-10T12:00:24;1.67;;;0.90;;
70967;SDS011;58629;48.808;8.820;2022-07-10T12:02:51;2.88;;;0.90;;
70967;SDS011;58629;48.808;8.820;2022-07-10T12:05:36;1.70;;;0.80;;
70967;SDS011;58629;48.808;8.820;2022-07-10T12:08:03;1.27;;;0.80;;
70967;SDS011;58629;48.808;8.820;2022-07-10T12:10:30;1.27;;;0.77;;
70967;SDS011;58629;48.808;8.820;2022-07-10T12:13:07;1.90;;;0.80;;
70967;SDS011;58629;48.808;8.820;2022-07-10T12:15:37;0.80;;;0.80;;
70967;SDS011;58629;48.808;8.820;2022-07-10T12:18:05;2.97;;;0.80;;
70967;SDS011;58629;48.808;8.820;2022-07-10T12:20:31;3.70;;;1.00;;
70967;SDS011;58629;48.808;8.820;2022-07-10T12:22:57;2.20;;;0.82;;
70967;SDS011;58629;48.808;8.820;2022-07-10T12:25:23;1.17;;;0.70;;
70967;SDS011;58629;48.808;8.820;2022-07-10T12:27:49;1.40;;;0.70;;
70967;SDS011;58629;48.808;8.820;2022-07-10T12:30:14;3.43;;;1.00;;
70967;SDS011;58629;48.808;8.820;2022-07-10T12:32:39;1.70;;;1.00;;
70967;SDS011;58629;48.808;8.820;2022-07-10T12:35:05;2.20;;;0.90;;
70967;SDS011;58629;48.808;8.820;2022-07-10T12:37:36;2.58;;;1.02;;
70967;SDS011;58629;48.808;8.820;2022-07-10T12:40:12;2.38;;;0.80;;
70967;SDS011;58629;48.808;8.820;2022-07-10T12:43:00;2.47;;;1.00;;
70967;SDS011;58629;48.808;8.820;2022-07-10T12:45:26;1.97;;;0.90;;
70967;SDS011;58629;48.808;8.820;2022-07-10T12:47:51;1.03;;;0.87;;
70967;SDS011;58629;48.808;8.820;2022-07-10T12:50:17;1.70;;;0.82;;
70967;SDS011;58629;48.808;8.820;2022-07-10T12:52:43;1.75;;;0.88;;
70967;SDS011;58629;48.808;8.820;2022-07-10T13:00:30;2.30;;;0.83;;
70967;SDS011;58629;48.808;8.820;2022-07-10T13:05:26;1.70;;;0.80;;
70967;SDS011;58629;48.808;8.820;2022-07-10T13:08:05;1.20;;;0.80;;
70967;SDS011;58629;48.808;8.820;2022-07-10T13:10:50;2.50;;;0.88;;
70967;SDS011;58629;48.808;8.820;2022-07-10T13:13:16;1.07;;;0.70;;
70967;SDS011;58629;48.808;8.820;2022-07-10T13:15:42;2.50;;;0.80;;
70967;SDS011;58629;48.808;8.820;2022-07-10T13:18:22;1.60;;;0.80;;
70967;SDS011;58629;48.808;8.820;2022-07-10T13:20:50;2.58;;;0.80;;
70967;SDS011;58629;48.808;8.820;2022-07-10T13:23:17;1.70;;;0.80;;
70967;SDS011;58629;48.808;8.820;2022-07-10T13:25:46;2.63;;;0.60;;
70967;SDS011;58629;48.808;8.820;2022-07-10T13:28:14;2.53;;;0.80;;
70967;SDS011;58629;48.808;8.820;2022-07-10T13:30:41;1.60;;;1.10;;
70967;SDS011;58629;48.808;8.820;2022-07-10T13:33:07;1.90;;;0.82;;
70967;SDS011;58629;48.808;8.820;2022-07-10T13:35:32;3.37;;;0.70;;
70967;SDS011;58629;48.808;8.820;2022-07-10T13:37:58;1.80;;;0.75;;
70967;SDS011;58629;48.808;8.820;2022-07-10T13:40:27;1.50;;;0.77;;
70967;SDS011;58629;48.808;8.820;2022-07-10T13:42:54;1.80;;;0.93;;
70967;SDS011;58629;48.808;8.820;2022-07-10T13:45:20;1.70;;;0.80;;
70967;SDS011;58629;48.808;8.820;2022-07-10T13:47:46;1.87;;;0.80;;
70967;SDS011;58629;48.808;8.820;2022-07-10T13:50:11;2.42;;;0.80;;
70967;SDS011;58629;48.808;8.820;2022-07-10T13:52:37;1.10;;;0.60;;
70967;SDS011;58629;48.808;8.820;2022-07-10T13:55:02;1.37;;;0.80;;
70967;SDS011;58629;48.808;8.820;2022-07-10T13:57:29;2.05;;;0.77;;
70967;SDS011;58629;48.808;8.820;2022-07-10T13:59:55;1.85;;;0.75;;
70967;SDS011;58629;48.808;8.820;2022-07-10T14:02:20;0.90;;;0.60;;
70967;SDS011;58629;48.808;8.820;2022-07-10T14:04:46;1.87;;;0.70;;
70967;SDS011;58629;48.808;8.820;2022-07-10T14:07:11;2.70;;;0.85;;
70967;SDS011;58629;48.808;8.820;2022-07-10T14:09:37;2.30;;;0.77;;
70967;SDS011;58629;48.808;8.820;2022-07-10T14:12:02;2.13;;;0.80;;
70967;SDS011;58629;48.808;8.820;2022-07-10T14:14:28;1.43;;;0.70;;
70967;SDS011;58629;48.808;8.820;2022-07-10T14:16:54;2.00;;;0.80;;
70967;SDS011;58629;48.808;8.820;2022-07-10T14:19:20;2.47;;;0.73;;
70967;SDS011;58629;48.808;8.820;2022-07-10T14:21:45;1.23;;;0.70;;
70967;SDS011;58629;48.808;8.820;2022-07-10T14:24:10;1.37;;;0.60;;
70967;SDS011;58629;48.808;8.820;2022-07-10T14:26:36;1.88;;;0.75;;
70967;SDS011;58629;48.808;8.820;2022-07-10T14:29:02;2.50;;;0.77;;
70967;SDS011;58629;48.808;8.820;2022-07-10T14:31:28;2.35;;;0.93;;
70967;SDS011;58629;48.808;8.820;2022-07-10T14:33:54;1.50;;;0.80;;
70967;SDS011;58629;48.808;8.820;2022-07-10T14:36:19;1.65;;;0.88;;
70967;SDS011;58629;48.808;8.820;2022-07-10T14:38:47;1.60;;;0.70;;
70967;SDS011;58629;48.808;8.820;2022-07-10T14:41:12;0.90;;;0.67;;
70967;SDS011;58629;48.808;8.820;2022-07-10T14:43:38;3.57;;;0.90;;
70967;SDS011;58629;48.808;8.820;2022-07-10T14:46:03;2.13;;;0.90;;
70967;SDS011;58629;48.808;8.820;2022-07-10T14:48:30;2.42;;;0.80;;
70967;SDS011;58629;48.808;8.820;2022-07-10T14:50:56;2.30;;;0.90;;
70967;SDS011;58629;48.808;8.820;2022-07-10T14:53:22;1.63;;;0.90;;
70967;SDS011;58629;48.808;8.820;2022-07-10T14:55:48;2.30;;;1.00;;
70967;SDS011;58629;48.808;8.820;2022-07-10T14:58:13;0.77;;;0.77;;
70967;SDS011;58629;48.808;8.820;2022-07-10T15:00:38;4.37;;;2.90;;
70967;SDS011;58629;48.808;8.820;2022-07-10T15:03:04;1.33;;;1.10;;
70967;SDS011;58629;48.808;8.820;2022-07-10T15:05:29;1.97;;;0.97;;
70967;SDS011;58629;48.808;8.820;2022-07-10T15:07:54;1.97;;;1.00;;
70967;SDS011;58629;48.808;8.820;2022-07-10T15:10:20;3.00;;;0.90;;
70967;SDS011;58629;48.808;8.820;2022-07-10T15:12:45;2.37;;;0.90;;
70967;SDS011;58629;48.808;8.820;2022-07-10T15:15:11;2.22;;;0.80;;
70967;SDS011;58629;48.808;8.820;2022-07-10T15:17:36;1.67;;;0.90;;
70967;SDS011;58629;48.808;8.820;2022-07-10T15:20:05;2.13;;;0.80;;
70967;SDS011;58629;48.808;8.820;2022-07-10T15:22:31;1.58;;;0.80;;
70967;SDS011;58629;48.808;8.820;2022-07-10T15:24:57;1.95;;;0.88;;
70967;SDS011;58629;48.808;8.820;2022-07-10T15:27:23;1.73;;;0.97;;
70967;SDS011;58629;48.808;8.820;2022-07-10T15:29:48;3.23;;;1.10;;
70967;SDS011;58629;48.808;8.820;2022-07-10T15:32:14;1.25;;;1.00;;
70967;SDS011;58629;48.808;8.820;2022-07-10T15:34:39;3.93;;;1.20;;
70967;SDS011;58629;48.808;8.820;2022-07-10T15:37:04;3.27;;;0.93;;
70967;SDS011;58629;48.808;8.820;2022-07-10T15:39:30;2.20;;;1.10;;
70967;SDS011;58629;48.808;8.820;2022-07-10T15:42:07;2.28;;;1.15;;
70967;SDS011;58629;48.808;8.820;2022-07-10T15:44:33;1.60;;;1.05;;
70967;SDS011;58629;48.808;8.820;2022-07-10T15:46:58;4.07;;;1.40;;
70967;SDS011;58629;48.808;8.820;2022-07-10T15:49:23;2.50;;;1.30;;
70967;SDS011;58629;48.808;8.820;2022-07-10T15:51:49;2.03;;;1.10;;
70967;SDS011;58629;48.808;8.820;2022-07-10T15:54:15;1.85;;;1.17;;
70967;SDS011;58629;48.808;8.820;2022-07-10T15:56:40;2.27;;;1.00;;
70967;SDS011;58629;48.808;8.820;2022-07-10T15:59:06;2.60;;;1.23;;
70967;SDS011;58629;48.808;8.820;2022-07-10T16:01:31;1.73;;;1.42;;